createdAt,value
2023-01-29T00:01:56.904Z,99619.06
2023-01-29T00:04:24.478Z,99609.00
2023-01-29T00:06:51.553Z,99611.66
2023-01-29T00:09:19.096Z,99600.22
2023-01-29T00:11:46.233Z,99610.47
2023-01-29T00:14:13.793Z,99593.88
2023-01-29T00:16:41.147Z,99612.53
2023-01-29T00:19:09.533Z,99607.47
2023-01-29T00:21:37.360Z,99603.19
2023-01-29T00:24:04.772Z,99592.50
2023-01-29T00:26:32.248Z,99598.13
2023-01-29T00:29:00.777Z,99597.78
2023-01-29T00:31:28.374Z,99599.25
2023-01-29T00:34:01.401Z,99598.25
2023-01-29T00:36:32.811Z,99559.47
2023-01-29T00:39:18.114Z,99585.38
2023-01-29T00:42:06.082Z,99586.34
2023-01-29T00:45:00.736Z,99581.19
2023-01-29T00:47:40.133Z,99545.69
2023-01-29T00:50:12.278Z,99570.53
2023-01-29T00:52:41.441Z,99577.97
2023-01-29T00:55:11.070Z,99574.03
2023-01-29T00:57:39.141Z,99579.88
2023-01-29T01:00:12.599Z,99571.16
2023-01-29T01:02:58.443Z,99542.69
2023-01-29T01:05:27.387Z,99564.34
2023-01-29T01:10:37.961Z,99565.56
2023-01-29T01:13:08.438Z,99577.97
2023-01-29T01:15:48.257Z,99570.88
2023-01-29T01:18:17.062Z,99559.38
2023-01-29T01:20:46.397Z,99567.47
2023-01-29T01:23:14.631Z,99570.72
2023-01-29T01:25:42.872Z,99571.69
2023-01-29T01:28:11.637Z,99549.78
2023-01-29T01:30:39.222Z,99529.19
2023-01-29T01:36:45.035Z,99568.94
2023-01-29T01:39:19.503Z,99551.38
2023-01-29T01:41:57.298Z,99539.06
2023-01-29T01:44:53.695Z,99567.19
2023-01-29T01:47:29.576Z,99541.63
2023-01-29T01:50:04.139Z,99546.38
2023-01-29T01:52:43.103Z,99530.47
2023-01-29T01:55:23.831Z,99520.56
2023-01-29T01:58:07.030Z,99556.25
2023-01-29T02:00:52.397Z,99546.66
2023-01-29T02:07:03.138Z,99532.78
2023-01-29T02:12:32.574Z,99531.31
2023-01-29T02:15:04.723Z,99538.34
2023-01-29T02:17:34.295Z,99527.22
2023-01-29T02:20:20.976Z,99529.88
2023-01-29T02:23:27.615Z,99523.69
2023-01-29T02:26:18.313Z,99507.66
2023-01-29T02:29:23.218Z,99519.78
2023-01-29T02:32:15.114Z,99523.03
2023-01-29T02:35:20.040Z,99527.16
2023-01-29T02:37:59.508Z,99448.41
2023-01-29T02:40:36.412Z,99504.72
2023-01-29T02:52:51.014Z,99508.72
2023-01-29T02:55:43.285Z,99487.78
2023-01-29T02:58:25.669Z,99474.41
2023-01-29T03:00:56.613Z,99478.25
2023-01-29T03:03:37.128Z,99473.75
2023-01-29T03:06:22.828Z,99484.06
2023-01-29T03:12:33.950Z,99472.84
2023-01-29T03:15:36.041Z,99465.03
2023-01-29T03:22:02.052Z,99475.78
2023-01-29T03:25:18.361Z,99455.28
2023-01-29T03:28:21.720Z,99468.97
2023-01-29T03:31:13.686Z,99428.25
2023-01-29T03:34:39.216Z,99454.47
2023-01-29T03:37:13.974Z,99451.22
2023-01-29T03:39:41.906Z,99453.63
2023-01-29T03:42:23.035Z,99442.28
2023-01-29T03:45:19.547Z,99443.22
2023-01-29T03:51:22.334Z,99433.56
2023-01-29T03:53:58.677Z,99435.34
2023-01-29T03:57:16.234Z,99426.66
2023-01-29T03:59:45.432Z,99414.59
2023-01-29T04:02:51.362Z,99402.03
2023-01-29T04:05:22.956Z,99419.88
2023-01-29T04:08:12.284Z,99412.97
2023-01-29T04:11:02.002Z,99400.75
2023-01-29T04:13:58.861Z,99391.75
2023-01-29T04:16:35.068Z,99376.56
2023-01-29T04:19:22.260Z,99395.41
2023-01-29T04:22:19.596Z,99397.88
2023-01-29T04:24:49.641Z,99398.44
2023-01-29T04:27:55.390Z,99390.72
2023-01-29T04:30:53.354Z,99402.38
2023-01-29T04:43:41.746Z,99393.84
2023-01-29T04:46:14.382Z,99386.13
2023-01-29T04:49:06.480Z,99385.25
2023-01-29T04:51:51.734Z,99384.19
2023-01-29T04:54:46.658Z,99384.88
2023-01-29T04:57:36.317Z,99388.22
2023-01-29T05:00:18.559Z,99390.03
2023-01-29T05:02:49.988Z,99368.19
2023-01-29T05:05:39.477Z,99373.28
2023-01-29T05:08:07.626Z,99357.38
2023-01-29T05:10:35.826Z,99369.25
2023-01-29T05:13:11.126Z,99372.66
2023-01-29T05:16:28.785Z,99326.81
2023-01-29T05:18:58.057Z,99349.66
2023-01-29T05:21:27.673Z,99296.75
2023-01-29T05:24:22.088Z,99372.78
2023-01-29T05:27:09.830Z,99372.78
2023-01-29T05:29:37.216Z,99349.50
2023-01-29T05:32:04.255Z,99354.47
2023-01-29T05:34:31.345Z,99351.91
2023-01-29T05:37:01.006Z,99371.03
2023-01-29T05:39:29.169Z,99337.56
2023-01-29T05:41:58.049Z,99353.34
2023-01-29T05:44:25.359Z,99358.63
2023-01-29T05:47:00.808Z,99384.16
2023-01-29T05:50:03.959Z,99363.94
2023-01-29T05:52:30.929Z,99369.44
2023-01-29T05:54:57.999Z,99372.97
2023-01-29T05:57:25.125Z,99359.69
2023-01-29T05:59:52.304Z,99374.88
2023-01-29T06:02:19.309Z,99370.69
2023-01-29T06:04:46.399Z,99361.19
2023-01-29T06:07:13.621Z,99364.88
2023-01-29T06:09:40.665Z,99377.13
2023-01-29T06:12:15.816Z,99359.44
2023-01-29T06:14:43.613Z,99373.44
2023-01-29T06:17:10.650Z,99345.72
2023-01-29T06:19:37.745Z,99353.66
2023-01-29T06:22:04.961Z,99364.03
2023-01-29T06:24:33.339Z,99376.25
2023-01-29T06:27:00.672Z,99354.47
2023-01-29T06:29:28.365Z,99376.31
2023-01-29T06:31:55.620Z,99366.09
2023-01-29T06:34:23.003Z,99350.91
2023-01-29T06:36:50.109Z,99332.41
2023-01-29T06:39:17.113Z,99367.53
2023-01-29T06:41:45.720Z,99341.91
2023-01-29T06:44:12.969Z,99272.94
2023-01-29T06:46:40.129Z,99354.75
2023-01-29T06:49:07.277Z,99350.50
2023-01-29T06:51:34.339Z,99344.81
2023-01-29T06:54:01.596Z,99313.28
2023-01-29T06:56:28.818Z,99352.09
2023-01-29T06:58:56.146Z,99297.59
2023-01-29T07:01:35.082Z,99296.00
2023-01-29T07:04:04.441Z,99245.94
2023-01-29T07:06:37.917Z,99250.91
2023-01-29T07:09:05.336Z,99335.84
2023-01-29T07:11:34.971Z,99292.25
2023-01-29T07:14:08.957Z,99183.72
2023-01-29T07:16:48.167Z,99166.41
2023-01-29T07:19:15.710Z,99261.09
2023-01-29T07:21:42.906Z,99316.63
2023-01-29T07:24:10.809Z,99282.25
2023-01-29T07:26:37.875Z,99323.88
2023-01-29T07:29:05.466Z,99306.56
2023-01-29T07:31:32.491Z,99305.03
2023-01-29T07:33:59.890Z,99305.34
2023-01-29T07:36:29.756Z,99317.56
2023-01-29T07:38:57.087Z,99308.72
2023-01-29T07:41:24.140Z,99313.53
2023-01-29T07:47:05.021Z,99298.50
2023-01-29T07:49:32.059Z,99313.66
2023-01-29T07:51:59.070Z,99312.06
2023-01-29T07:54:27.045Z,99309.19
2023-01-29T07:56:57.238Z,99314.69
2023-01-29T07:59:24.265Z,99320.53
2023-01-29T08:02:04.566Z,99311.09
2023-01-29T08:04:31.527Z,99326.69
2023-01-29T08:06:58.493Z,99308.22
2023-01-29T08:09:25.830Z,99318.16
2023-01-29T08:11:52.856Z,99309.13
2023-01-29T08:14:20.004Z,99255.63
2023-01-29T08:16:47.645Z,99297.56
2023-01-29T08:19:14.810Z,99304.22
2023-01-29T08:21:42.007Z,99298.03
2023-01-29T08:24:09.190Z,99278.94
2023-01-29T08:26:36.188Z,99294.09
2023-01-29T08:29:03.293Z,99267.47
2023-01-29T08:31:30.742Z,99292.28
2023-01-29T08:33:58.962Z,99285.22
2023-01-29T08:36:26.055Z,99275.13
2023-01-29T08:38:53.059Z,99239.44
2023-01-29T08:41:20.253Z,99239.28
2023-01-29T08:43:47.520Z,99265.53
2023-01-29T08:46:14.515Z,99270.03
2023-01-29T08:48:41.515Z,99275.34
2023-01-29T08:51:09.364Z,99271.66
2023-01-29T08:53:36.437Z,99270.84
2023-01-29T08:56:04.023Z,99267.25
2023-01-29T08:58:31.090Z,99269.53
2023-01-29T09:01:06.594Z,99268.38
2023-01-29T09:03:33.757Z,99263.94
2023-01-29T09:06:00.876Z,99275.25
2023-01-29T09:08:28.361Z,99251.31
2023-01-29T09:10:55.308Z,99257.47
2023-01-29T09:13:22.371Z,99259.53
2023-01-29T09:15:49.538Z,99227.13
2023-01-29T09:18:16.692Z,99259.53
2023-01-29T09:20:43.757Z,99258.03
2023-01-29T09:23:11.520Z,99256.44
2023-01-29T09:25:38.507Z,99263.47
2023-01-29T09:28:06.409Z,99253.16
2023-01-29T09:30:34.862Z,99240.97
2023-01-29T09:33:02.025Z,99240.97
2023-01-29T09:35:29.092Z,99192.34
2023-01-29T09:37:56.396Z,99255.06
2023-01-29T09:40:29.794Z,99249.91
2023-01-29T09:43:04.740Z,99235.31
2023-01-29T09:45:31.980Z,99194.44
2023-01-29T09:48:02.486Z,99220.03
2023-01-29T09:50:40.257Z,99222.09
2023-01-29T09:53:19.116Z,99211.03
2023-01-29T09:55:52.598Z,99216.94
2023-01-29T09:58:29.250Z,99200.78
2023-01-29T10:01:24.348Z,99196.56
2023-01-29T10:04:08.372Z,99198.47
2023-01-29T10:06:41.262Z,99207.03
2023-01-29T10:09:47.036Z,99206.13
2023-01-29T10:12:22.868Z,99197.78
2023-01-29T10:15:08.857Z,99200.38
2023-01-29T10:18:05.331Z,99189.78
2023-01-29T10:21:06.479Z,99194.06
2023-01-29T10:23:54.894Z,99134.22
2023-01-29T10:26:24.975Z,99187.22
2023-01-29T10:28:55.379Z,99183.75
2023-01-29T10:31:29.492Z,99174.56
2023-01-29T10:34:14.989Z,99165.91
2023-01-29T10:36:45.314Z,99123.22
2023-01-29T10:39:15.227Z,99145.19
2023-01-29T10:42:00.985Z,99137.47
2023-01-29T10:44:48.987Z,99142.72
2023-01-29T10:47:52.876Z,99140.78
2023-01-29T10:50:59.413Z,99124.50
2023-01-29T10:53:46.786Z,99102.78
2023-01-29T10:56:23.660Z,99116.63
2023-01-29T10:59:05.540Z,99095.16
2023-01-29T11:01:32.796Z,99096.94
2023-01-29T11:04:03.481Z,99072.38
2023-01-29T11:06:33.365Z,99071.28
2023-01-29T11:09:15.209Z,99075.06
2023-01-29T11:11:50.930Z,99074.06
2023-01-29T11:14:38.176Z,99076.19
2023-01-29T11:17:05.191Z,99064.72
2023-01-29T11:19:45.360Z,99067.91
2023-01-29T11:22:20.955Z,99076.69
2023-01-29T11:25:10.412Z,99073.31
2023-01-29T11:27:48.073Z,99070.47
2023-01-29T11:39:44.600Z,99045.72
2023-01-29T11:46:11.919Z,99076.44
2023-01-29T11:52:21.039Z,99052.41
2023-01-29T11:55:05.417Z,99064.50
2023-01-29T11:57:41.287Z,99039.31
2023-01-29T12:00:25.659Z,99041.22
2023-01-29T12:03:15.032Z,99025.84
2023-01-29T12:05:57.986Z,99061.22
2023-01-29T12:08:25.563Z,99019.94
2023-01-29T12:11:07.688Z,99063.47
2023-01-29T12:13:36.236Z,99054.03
2023-01-29T12:16:34.811Z,99051.53
2023-01-29T12:22:29.734Z,99062.31
2023-01-29T12:25:07.503Z,99037.94
2023-01-29T12:28:05.634Z,99040.91
2023-01-29T12:30:48.670Z,99041.97
2023-01-29T12:33:44.313Z,99030.84
2023-01-29T12:36:22.364Z,99042.16
2023-01-29T12:38:49.514Z,99012.47
2023-01-29T12:41:31.469Z,99042.09
2023-01-29T12:44:05.851Z,99046.16
2023-01-29T12:46:43.937Z,99023.72
2023-01-29T12:49:18.573Z,99033.16
2023-01-29T12:52:22.059Z,99024.59
2023-01-29T12:55:38.401Z,99032.28
2023-01-29T12:58:15.099Z,99008.63
2023-01-29T13:00:49.266Z,98985.88
2023-01-29T13:03:25.644Z,99028.09
2023-01-29T13:06:12.133Z,99026.13
2023-01-29T13:08:51.589Z,99031.34
2023-01-29T13:11:45.697Z,99032.22
2023-01-29T13:14:40.969Z,99012.91
2023-01-29T13:17:36.918Z,99014.31
2023-01-29T13:20:30.342Z,99025.16
2023-01-29T13:23:04.880Z,99038.94
2023-01-29T13:25:31.951Z,98990.75
2023-01-29T13:27:59.098Z,99011.50
2023-01-29T13:30:32.201Z,99026.75
2023-01-29T13:33:10.627Z,99016.34
2023-01-29T13:35:45.198Z,99009.38
2023-01-29T13:38:25.658Z,99005.53
2023-01-29T13:40:56.744Z,98988.25
2023-01-29T13:43:24.548Z,99015.28
2023-01-29T13:45:53.717Z,99000.44
2023-01-29T13:48:32.648Z,98987.25
2023-01-29T13:51:04.883Z,98979.50
2023-01-29T13:53:42.191Z,99001.44
2023-01-29T13:56:43.251Z,99007.75
2023-01-29T13:59:23.817Z,99004.16
2023-01-29T14:01:51.027Z,99004.97
2023-01-29T14:04:25.964Z,99006.72
2023-01-29T14:06:56.576Z,98976.78
2023-01-29T14:09:43.711Z,99008.38
2023-01-29T14:12:23.026Z,99004.84
2023-01-29T14:14:54.887Z,99013.53
2023-01-29T14:17:21.998Z,98973.38
2023-01-29T14:19:50.619Z,98990.13
2023-01-29T14:22:27.842Z,98983.38
2023-01-29T14:25:00.288Z,98965.56
2023-01-29T14:27:27.934Z,98986.72
2023-01-29T14:30:03.945Z,98980.44
2023-01-29T14:32:31.798Z,98984.91
2023-01-29T14:35:04.042Z,98989.13
2023-01-29T14:37:40.602Z,98980.44
2023-01-29T14:40:34.543Z,98985.59
2023-01-29T14:43:20.000Z,98980.19
2023-01-29T14:45:48.869Z,98956.75
2023-01-29T14:48:34.464Z,98984.59
2023-01-29T14:51:11.087Z,98975.88
2023-01-29T14:53:48.998Z,98973.38
2023-01-29T14:56:33.900Z,98978.44
2023-01-29T14:59:24.106Z,98977.63
2023-01-29T15:01:56.596Z,98975.03
2023-01-29T15:04:44.637Z,98934.56
2023-01-29T15:07:11.915Z,98973.16
2023-01-29T15:09:55.656Z,98956.75
2023-01-29T15:12:39.683Z,98962.97
2023-01-29T15:15:27.269Z,98976.66
2023-01-29T15:18:02.054Z,98839.97
2023-01-29T15:20:33.621Z,98957.38
2023-01-29T15:23:03.547Z,98966.34
2023-01-29T15:25:49.779Z,98952.31
2023-01-29T15:28:17.528Z,98953.91
2023-01-29T15:30:45.212Z,98969.88
2023-01-29T15:33:14.960Z,98978.44
2023-01-29T15:35:42.938Z,98969.34
2023-01-29T15:38:22.863Z,98982.09
2023-01-29T15:41:00.549Z,98978.50
2023-01-29T15:43:37.053Z,98967.84
2023-01-29T15:46:12.775Z,98933.03
2023-01-29T15:48:42.941Z,98872.81
2023-01-29T15:51:16.177Z,98962.78
2023-01-29T15:53:50.268Z,98944.16
2023-01-29T15:56:21.947Z,98962.84
2023-01-29T15:58:51.276Z,98924.94
2023-01-29T16:01:19.017Z,98929.50
2023-01-29T16:03:49.369Z,98955.94
2023-01-29T16:06:17.142Z,98956.63
2023-01-29T16:08:48.973Z,98915.16
2023-01-29T16:11:17.445Z,98953.91
2023-01-29T16:13:49.342Z,98957.31
2023-01-29T16:16:16.566Z,98941.47
2023-01-29T16:18:58.956Z,98939.94
2023-01-29T16:21:41.513Z,98945.25
2023-01-29T16:24:12.046Z,98906.63
2023-01-29T16:26:48.249Z,98929.66
2023-01-29T16:29:19.203Z,98931.53
2023-01-29T16:31:49.801Z,98930.72
2023-01-29T16:37:39.106Z,98917.81
2023-01-29T16:40:37.735Z,98920.22
2023-01-29T16:43:20.665Z,98924.63
2023-01-29T16:46:24.712Z,98938.19
2023-01-29T16:48:52.897Z,98909.50
2023-01-29T16:51:37.838Z,98932.34
2023-01-29T16:54:22.354Z,98922.84
2023-01-29T16:56:56.107Z,98920.22
2023-01-29T16:59:38.292Z,98914.94
2023-01-29T17:02:17.589Z,98928.75
2023-01-29T17:04:59.790Z,98932.22
2023-01-29T17:07:27.841Z,98927.88
2023-01-29T17:09:58.974Z,98928.00
2023-01-29T17:12:27.654Z,98914.31
2023-01-29T17:15:42.569Z,98921.09
2023-01-29T17:19:09.132Z,98907.38
2023-01-29T17:21:36.099Z,98874.09
2023-01-29T17:24:03.144Z,98872.44
2023-01-29T17:26:31.646Z,98805.50
2023-01-29T17:28:58.785Z,98844.56
2023-01-29T17:31:25.924Z,98874.34
2023-01-29T17:33:53.544Z,98886.66
2023-01-29T17:36:20.848Z,98900.38
2023-01-29T17:38:47.885Z,98832.00
2023-01-29T17:41:25.200Z,98858.50
2023-01-29T17:43:53.268Z,98878.59
2023-01-29T17:46:21.061Z,98891.53
2023-01-29T17:48:52.545Z,98883.75
2023-01-29T17:57:29.444Z,98883.81
2023-01-29T17:59:59.483Z,98875.03
2023-01-29T18:02:29.580Z,98878.59
2023-01-29T18:05:08.636Z,98874.34
2023-01-29T18:10:17.909Z,98878.72
2023-01-29T18:12:46.408Z,98891.53
2023-01-29T18:15:13.633Z,98871.69
2023-01-29T18:17:41.832Z,98874.34
2023-01-29T18:20:22.196Z,98879.63
2023-01-29T18:22:50.653Z,98862.28
2023-01-29T18:25:18.465Z,98869.19
2023-01-29T18:27:46.821Z,98860.25
2023-01-29T18:30:14.504Z,98877.75
2023-01-29T18:32:41.924Z,98872.38
2023-01-29T18:48:49.709Z,98874.34
2023-01-29T18:51:17.191Z,98865.69
2023-01-29T19:09:50.990Z,98761.59
2023-01-29T19:15:15.034Z,98848.44
2023-01-29T19:17:59.535Z,98847.59
2023-01-29T19:20:37.652Z,98839.78
2023-01-29T19:23:26.094Z,98848.84
2023-01-29T19:26:03.093Z,98836.53
2023-01-29T19:28:43.507Z,98820.69
2023-01-29T19:31:11.601Z,98841.69
2023-01-29T19:33:39.460Z,98817.09
2023-01-29T19:36:06.965Z,98815.41
2023-01-29T19:38:38.067Z,98824.56
2023-01-29T19:41:05.798Z,98812.75
2023-01-29T19:43:33.084Z,98805.09
2023-01-29T19:46:01.920Z,98821.06
2023-01-29T19:48:29.147Z,98824.34
2023-01-29T19:51:10.489Z,98803.09
2023-01-29T19:53:40.160Z,98833.00
2023-01-29T20:09:10.001Z,98820.78
2023-01-29T20:11:37.009Z,98820.78
2023-01-29T20:14:04.051Z,98822.59
2023-01-29T20:16:31.147Z,98820.06
2023-01-29T20:19:14.234Z,98805.25
2023-01-29T20:34:15.260Z,98795.09
2023-01-29T20:37:09.023Z,98775.94
2023-01-29T20:42:41.191Z,98725.47
2023-01-29T20:48:54.504Z,98750.19
2023-01-29T20:51:26.870Z,98769.28
2023-01-29T20:53:56.988Z,98764.25
2023-01-29T20:56:37.075Z,98727.56
2023-01-29T20:59:12.363Z,98687.00
2023-01-29T21:01:40.871Z,98745.03
2023-01-29T21:04:08.702Z,98730.13
2023-01-29T21:06:41.297Z,98711.66
2023-01-29T21:09:18.034Z,98723.16
2023-01-29T21:21:47.900Z,98747.28
2023-01-29T21:31:06.331Z,98750.63
2023-01-29T21:33:38.035Z,98726.09
2023-01-29T21:36:05.680Z,98706.94
2023-01-29T21:38:33.202Z,98699.44
2023-01-29T21:41:02.048Z,98716.38
2023-01-29T21:43:29.407Z,98716.22
2023-01-29T21:45:58.636Z,98716.09
2023-01-29T21:58:42.748Z,98685.78
2023-01-29T22:01:18.259Z,98711.50
2023-01-29T22:07:38.485Z,98708.06
2023-01-29T22:10:06.009Z,98701.88
2023-01-29T22:27:48.572Z,98711.69
2023-01-29T22:30:15.907Z,98703.16
2023-01-29T22:32:44.761Z,98695.19
2023-01-29T22:35:11.794Z,98674.31
2023-01-29T22:37:38.856Z,98667.31
2023-01-29T22:40:06.673Z,98683.22
2023-01-29T22:42:51.675Z,98679.97
2023-01-29T22:49:24.394Z,98689.00
2023-01-29T22:56:31.655Z,98670.84
2023-01-29T23:02:59.671Z,98661.47
2023-01-29T23:05:26.795Z,98650.38
2023-01-29T23:07:53.931Z,98655.38
2023-01-29T23:10:21.449Z,98657.13
2023-01-29T23:12:49.988Z,98593.81
2023-01-29T23:15:20.950Z,98639.72
2023-01-29T23:33:55.436Z,98601.88
2023-01-29T23:39:58.587Z,98626.41
2023-01-29T23:42:55.736Z,98623.53
2023-01-29T23:46:14.067Z,98625.41
2023-01-29T23:48:48.545Z,98622.81
2023-01-29T23:51:17.245Z,98621.78
2023-01-29T23:53:58.703Z,98572.09
2023-01-29T23:56:26.439Z,98592.97
2023-01-29T23:58:55.165Z,98566.84
